Terminal Aerodrome Forecast
Issued by NWS Goodland, KS

Home | Current Version | Previous Version | Text Only | Print | Product List | Glossary On
Versions: 1 2 3 4 5 6 7 8 9 10 11 12 13 14 15 16 17 18
662
FTUS43 KGLD 222321
TAFGLD
TAF
KGLD 222321Z 2300/2324 32014KT P6SM SKC
     FM230400 29010KT P6SM FEW100 SCT250
     FM231800 32014G22KT P6SM FEW045 FEW200
     FM232200 32009KT P6SM FEW035 FEW150=

USA.gov is the U.S. government's official web portal to all federal, state and local government web resources and services.